Pinon, Colorado
Current Conditions -  °F | °C
As of 5:53 PM on Sunday 21 Dec 2014 (Local Time) from KPUB Reporting Station
Clear Clear  
Wind Chill: 52°   Ceiling: Unl
Heat Index: 52°   Visibility: 10mi
Dew Point: 24°   Wind: 23mph
Humidity: 34%   Direction: 310°NW
Pressure: 29.58"   Gusts: 28mph
Location:  38.4101°N, 104.583°W
Report Text: KPUB 220053Z AUTO 31020G24KT 10SM CLR 11/M04 A2958 RMK AO2 PK WND 29033/0012 SLP020 T01111044
Loading
Personal Weather Stations






























Interactive Weather Map New forecast layout! Learn more

10-Day Weather Forecast

Advertisements
Track Severe Weather on mobile